Terminal Aerodrome Forecast
Issued by NWS

Home | Current Version | Previous Version | Text Only | Print | Product List | Glossary On
Versions: 1 2 3 4 5 6 7 8 9 10 11 12 13 14 15 16 17 18 19 20 21 22 23 24 25 26 27 28 29 30 31 32 33 34 35 36 37 38 39 40 41 42 43 44 45 46 47 48 49 50
000
FTUS41 KCAR 211421 AAA
TAFFVE
TAF AMD
KFVE 211421Z 2114/2212 13008KT 1/4SM -RA FG OVC002 WS020/20030KT
     FM211600 15008KT 3SM BR BKN005
     FM211700 19008KT P6SM BKN012
     FM211800 19008KT P6SM BKN025=

USA.gov is the U.S. government's official web portal to all federal, state and local government web resources and services.